sensor_id;sensor_type;location;lat;lon;timestamp;pressure;altitude;pressure_sealevel;temperature;humidity
20616;BME280;10467;42.338;23.552;2022-08-19T00:01:36;90832.88;;;18.37;100.00
20616;BME280;10467;42.338;23.552;2022-08-19T00:04:05;90843.66;;;18.37;100.00
20616;BME280;10467;42.338;23.552;2022-08-19T00:06:30;90829.03;;;18.38;100.00
20616;BME280;10467;42.338;23.552;2022-08-19T00:08:57;90826.66;;;18.33;100.00
20616;BME280;10467;42.338;23.552;2022-08-19T00:11:23;90820.34;;;18.25;100.00
20616;BME280;10467;42.338;23.552;2022-08-19T00:13:50;90818.06;;;18.27;100.00
20616;BME280;10467;42.338;23.552;2022-08-19T00:16:17;90827.34;;;18.30;100.00
20616;BME280;10467;42.338;23.552;2022-08-19T00:18:47;90836.66;;;18.33;100.00
20616;BME280;10467;42.338;23.552;2022-08-19T00:21:12;90835.00;;;18.28;100.00
20616;BME280;10467;42.338;23.552;2022-08-19T00:23:38;90833.53;;;18.31;100.00
20616;BME280;10467;42.338;23.552;2022-08-19T00:26:05;90834.59;;;18.26;100.00
20616;BME280;10467;42.338;23.552;2022-08-19T00:28:31;90831.78;;;18.19;100.00
20616;BME280;10467;42.338;23.552;2022-08-19T00:30:57;90828.94;;;18.12;100.00
20616;BME280;10467;42.338;23.552;2022-08-19T00:33:22;90826.19;;;18.08;100.00
20616;BME280;10467;42.338;23.552;2022-08-19T00:35:48;90830.13;;;18.14;100.00
20616;BME280;10467;42.338;23.552;2022-08-19T00:38:13;90830.13;;;18.14;100.00
20616;BME280;10467;42.338;23.552;2022-08-19T00:40:39;90833.97;;;18.13;100.00
20616;BME280;10467;42.338;23.552;2022-08-19T00:43:10;90830.38;;;18.06;100.00
20616;BME280;10467;42.338;23.552;2022-08-19T00:45:38;90826.28;;;17.92;100.00
20616;BME280;10467;42.338;23.552;2022-08-19T00:48:07;90829.75;;;17.93;100.00
20616;BME280;10467;42.338;23.552;2022-08-19T00:50:33;90837.41;;;17.91;100.00
20616;BME280;10467;42.338;23.552;2022-08-19T00:52:59;90835.41;;;17.88;100.00
20616;BME280;10467;42.338;23.552;2022-08-19T00:55:30;90834.91;;;17.82;100.00
20616;BME280;10467;42.338;23.552;2022-08-19T00:58:10;90839.09;;;17.80;100.00
20616;BME280;10467;42.338;23.552;2022-08-19T01:00:38;90844.88;;;17.82;100.00
20616;BME280;10467;42.338;23.552;2022-08-19T01:03:10;90845.25;;;17.80;100.00
20616;BME280;10467;42.338;23.552;2022-08-19T01:05:36;90840.50;;;17.74;100.00
20616;BME280;10467;42.338;23.552;2022-08-19T01:08:04;90841.78;;;17.80;100.00
20616;BME280;10467;42.338;23.552;2022-08-19T01:10:37;90846.38;;;17.79;100.00
20616;BME280;10467;42.338;23.552;2022-08-19T01:13:04;90847.16;;;17.80;100.00
20616;BME280;10467;42.338;23.552;2022-08-19T01:15:33;90833.00;;;17.83;100.00
20616;BME280;10467;42.338;23.552;2022-08-19T01:18:06;90838.88;;;17.88;100.00
20616;BME280;10467;42.338;23.552;2022-08-19T01:20:33;90839.72;;;17.92;100.00
20616;BME280;10467;42.338;23.552;2022-08-19T01:23:00;90845.69;;;18.02;100.00
20616;BME280;10467;42.338;23.552;2022-08-19T01:25:45;90839.94;;;18.03;100.00
20616;BME280;10467;42.338;23.552;2022-08-19T01:28:24;90841.66;;;17.92;100.00
20616;BME280;10467;42.338;23.552;2022-08-19T01:30:54;90839.50;;;17.82;100.00
20616;BME280;10467;42.338;23.552;2022-08-19T01:33:20;90837.06;;;17.73;100.00
20616;BME280;10467;42.338;23.552;2022-08-19T01:35:46;90836.28;;;17.73;100.00
20616;BME280;10467;42.338;23.552;2022-08-19T01:38:24;90834.72;;;17.72;100.00
20616;BME280;10467;42.338;23.552;2022-08-19T01:40:50;90836.28;;;17.73;100.00
20616;BME280;10467;42.338;23.552;2022-08-19T01:43:15;90827.00;;;17.70;100.00
20616;BME280;10467;42.338;23.552;2022-08-19T01:45:41;90836.34;;;17.76;100.00
20616;BME280;10467;42.338;23.552;2022-08-19T01:48:07;90827.63;;;17.83;100.00
20616;BME280;10467;42.338;23.552;2022-08-19T01:50:35;90827.63;;;17.83;100.00
20616;BME280;10467;42.338;23.552;2022-08-19T01:53:04;90827.53;;;17.79;100.00
20616;BME280;10467;42.338;23.552;2022-08-19T01:55:30;90828.75;;;17.82;100.00
20616;BME280;10467;42.338;23.552;2022-08-19T01:57:58;90832.56;;;17.81;100.00
20616;BME280;10467;42.338;23.552;2022-08-19T02:00:28;90826.63;;;17.91;100.00
20616;BME280;10467;42.338;23.552;2022-08-19T02:02:54;90823.59;;;17.92;100.00
20616;BME280;10467;42.338;23.552;2022-08-19T02:05:20;90824.00;;;17.94;100.00
20616;BME280;10467;42.338;23.552;2022-08-19T02:07:47;90831.28;;;17.94;100.00
20616;BME280;10467;42.338;23.552;2022-08-19T02:10:16;90827.41;;;17.91;100.00
20616;BME280;10467;42.338;23.552;2022-08-19T02:12:42;90820.47;;;17.90;100.00
20616;BME280;10467;42.338;23.552;2022-08-19T02:15:08;90826.94;;;17.86;100.00
20616;BME280;10467;42.338;23.552;2022-08-19T02:17:34;90825.38;;;17.85;100.00
20616;BME280;10467;42.338;23.552;2022-08-19T02:19:59;90825.28;;;17.81;100.00
20616;BME280;10467;42.338;23.552;2022-08-19T02:22:25;90829.47;;;17.79;100.00
20616;BME280;10467;42.338;23.552;2022-08-19T02:24:55;90833.16;;;17.71;100.00
20616;BME280;10467;42.338;23.552;2022-08-19T02:27:21;90828.47;;;17.67;100.00
20616;BME280;10467;42.338;23.552;2022-08-19T02:29:49;90831.84;;;17.64;100.00
20616;BME280;10467;42.338;23.552;2022-08-19T02:32:16;90826.81;;;17.63;100.00
20616;BME280;10467;42.338;23.552;2022-08-19T02:34:41;90834.41;;;17.57;100.00
20616;BME280;10467;42.338;23.552;2022-08-19T02:37:07;90827.81;;;17.55;100.00
20616;BME280;10467;42.338;23.552;2022-08-19T02:39:52;90827.66;;;17.48;100.00
20616;BME280;10467;42.338;23.552;2022-08-19T02:42:18;90833.38;;;17.46;100.00
20616;BME280;10467;42.338;23.552;2022-08-19T02:44:43;90834.81;;;17.40;100.00
20616;BME280;10467;42.338;23.552;2022-08-19T02:47:10;90838.53;;;17.35;100.00
20616;BME280;10467;42.338;23.552;2022-08-19T02:49:35;90837.69;;;17.31;100.00
20616;BME280;10467;42.338;23.552;2022-08-19T02:52:01;90843.47;;;17.33;100.00
20616;BME280;10467;42.338;23.552;2022-08-19T02:54:27;90841.13;;;17.32;100.00
20616;BME280;10467;42.338;23.552;2022-08-19T02:56:53;90844.25;;;17.34;100.00
20616;BME280;10467;42.338;23.552;2022-08-19T02:59:19;90846.53;;;17.32;100.00
20616;BME280;10467;42.338;23.552;2022-08-19T03:01:45;90842.69;;;17.33;100.00
20616;BME280;10467;42.338;23.552;2022-08-19T03:04:12;90843.47;;;17.33;100.00
20616;BME280;10467;42.338;23.552;2022-08-19T03:06:41;90846.09;;;17.30;100.00
20616;BME280;10467;42.338;23.552;2022-08-19T03:09:07;90839.94;;;17.29;100.00
20616;BME280;10467;42.338;23.552;2022-08-19T03:11:33;90841.00;;;17.25;100.00
20616;BME280;10467;42.338;23.552;2022-08-19T03:14:00;90841.25;;;17.20;100.00
20616;BME280;10467;42.338;23.552;2022-08-19T03:16:28;90846.72;;;17.23;100.00
20616;BME280;10467;42.338;23.552;2022-08-19T03:18:56;90835.09;;;17.19;100.00
20616;BME280;10467;42.338;23.552;2022-08-19T03:21:26;90841.25;;;17.20;100.00
20616;BME280;10467;42.338;23.552;2022-08-19T03:24:00;90846.72;;;17.23;100.00
20616;BME280;10467;42.338;23.552;2022-08-19T03:26:26;90848.00;;;17.29;100.00
20616;BME280;10467;42.338;23.552;2022-08-19T03:28:51;90838.03;;;17.30;100.00
20616;BME280;10467;42.338;23.552;2022-08-19T03:31:21;90841.91;;;17.32;100.00
20616;BME280;10467;42.338;23.552;2022-08-19T03:33:51;90851.34;;;17.42;100.00
20616;BME280;10467;42.338;23.552;2022-08-19T03:36:20;90843.28;;;17.42;100.00
20616;BME280;10467;42.338;23.552;2022-08-19T03:38:52;90842.59;;;17.45;100.00
20616;BME280;10467;42.338;23.552;2022-08-19T03:41:22;90837.91;;;17.42;100.00
20616;BME280;10467;42.338;23.552;2022-08-19T03:43:47;90835.56;;;17.41;100.00
20616;BME280;10467;42.338;23.552;2022-08-19T03:46:16;90849.09;;;17.44;100.00
20616;BME280;10467;42.338;23.552;2022-08-19T03:48:43;90843.72;;;17.44;100.00
20616;BME280;10467;42.338;23.552;2022-08-19T03:51:30;90846.22;;;17.53;100.00
20616;BME280;10467;42.338;23.552;2022-08-19T03:53:57;90843.72;;;17.44;100.00
20616;BME280;10467;42.338;23.552;2022-08-19T03:56:23;90855.75;;;17.50;100.00
20616;BME280;10467;42.338;23.552;2022-08-19T03:58:51;90859.66;;;17.53;100.00
20616;BME280;10467;42.338;23.552;2022-08-19T04:01:21;90857.31;;;17.51;100.00
20616;BME280;10467;42.338;23.552;2022-08-19T04:03:47;90862.84;;;17.58;100.00
20616;BME280;10467;42.338;23.552;2022-08-19T04:06:17;90861.00;;;17.62;100.00
20616;BME280;10467;42.338;23.552;2022-08-19T04:08:45;90861.06;;;17.66;100.00
20616;BME280;10467;42.338;23.552;2022-08-19T04:11:14;90864.31;;;17.72;100.00
20616;BME280;10467;42.338;23.552;2022-08-19T04:13:41;90866.34;;;17.78;100.00
20616;BME280;10467;42.338;23.552;2022-08-19T04:16:09;90852.53;;;17.80;100.00
20616;BME280;10467;42.338;23.552;2022-08-19T04:18:37;90865.09;;;17.91;100.00
20616;BME280;10467;42.338;23.552;2022-08-19T04:21:03;90870.41;;;17.88;100.00
20616;BME280;10467;42.338;23.552;2022-08-19T04:23:29;90872.88;;;17.96;100.00
20616;BME280;10467;42.338;23.552;2022-08-19T04:25:55;90870.34;;;18.04;100.00
20616;BME280;10467;42.338;23.552;2022-08-19T04:28:21;90861.66;;;18.14;100.00
20616;BME280;10467;42.338;23.552;2022-08-19T04:30:49;90864.88;;;18.19;100.00
20616;BME280;10467;42.338;23.552;2022-08-19T04:33:17;90856.50;;;18.24;100.00
20616;BME280;10467;42.338;23.552;2022-08-19T04:35:46;90878.66;;;18.37;100.00
20616;BME280;10467;42.338;23.552;2022-08-19T04:38:12;90864.94;;;18.46;100.00
20616;BME280;10467;42.338;23.552;2022-08-19T04:40:43;90862.34;;;18.49;100.00
20616;BME280;10467;42.338;23.552;2022-08-19T04:43:27;90866.88;;;18.65;100.00
20616;BME280;10467;42.338;23.552;2022-08-19T04:45:53;90866.25;;;18.75;100.00
20616;BME280;10467;42.338;23.552;2022-08-19T04:48:18;90858.47;;;18.70;100.00
20616;BME280;10467;42.338;23.552;2022-08-19T04:50:55;90855.63;;;18.82;100.00
20616;BME280;10467;42.338;23.552;2022-08-19T04:53:29;90860.00;;;19.43;97.47
20616;BME280;10467;42.338;23.552;2022-08-19T04:55:57;90850.81;;;20.75;84.32
20616;BME280;10467;42.338;23.552;2022-08-19T04:58:26;90853.91;;;21.76;75.53
20616;BME280;10467;42.338;23.552;2022-08-19T05:00:52;90859.16;;;22.13;72.61
20616;BME280;10467;42.338;23.552;2022-08-19T05:03:18;90858.19;;;22.82;67.88
20616;BME280;10467;42.338;23.552;2022-08-19T05:05:45;90871.06;;;23.38;65.51
20616;BME280;10467;42.338;23.552;2022-08-19T05:08:15;90863.94;;;24.23;62.61
20616;BME280;10467;42.338;23.552;2022-08-19T05:10:49;90866.28;;;25.63;57.92
20616;BME280;10467;42.338;23.552;2022-08-19T05:13:16;90867.81;;;25.16;58.03
20616;BME280;10467;42.338;23.552;2022-08-19T05:15:42;90871.09;;;25.93;56.38
20616;BME280;10467;42.338;23.552;2022-08-19T05:18:09;90877.31;;;26.69;53.92
20616;BME280;10467;42.338;23.552;2022-08-19T05:20:53;90875.53;;;27.17;52.48
20616;BME280;10467;42.338;23.552;2022-08-19T05:23:38;90871.63;;;27.41;51.12
20616;BME280;10467;42.338;23.552;2022-08-19T05:26:03;90875.56;;;27.90;49.93
20616;BME280;10467;42.338;23.552;2022-08-19T05:28:29;90882.44;;;28.22;49.35
20616;BME280;10467;42.338;23.552;2022-08-19T05:30:54;90888.31;;;28.44;48.96
20616;BME280;10467;42.338;23.552;2022-08-19T05:33:21;90867.44;;;29.45;46.79
20616;BME280;10467;42.338;23.552;2022-08-19T05:35:47;90874.16;;;29.77;46.02
20616;BME280;10467;42.338;23.552;2022-08-19T05:38:15;90877.50;;;29.68;46.38
20616;BME280;10467;42.338;23.552;2022-08-19T05:40:41;90882.59;;;30.77;44.33
20616;BME280;10467;42.338;23.552;2022-08-19T05:43:11;90876.56;;;31.11;43.31
20616;BME280;10467;42.338;23.552;2022-08-19T05:45:40;90874.06;;;31.67;42.46
20616;BME280;10467;42.338;23.552;2022-08-19T05:48:07;90868.66;;;32.27;41.36
20616;BME280;10467;42.338;23.552;2022-08-19T05:50:37;90869.22;;;31.71;42.56
20616;BME280;10467;42.338;23.552;2022-08-19T05:53:03;90870.06;;;32.19;41.78
20616;BME280;10467;42.338;23.552;2022-08-19T05:55:28;90877.84;;;33.02;40.09
20616;BME280;10467;42.338;23.552;2022-08-19T05:57:54;90872.38;;;34.05;38.33
20616;BME280;10467;42.338;23.552;2022-08-19T06:00:19;90869.28;;;34.43;37.88
20616;BME280;10467;42.338;23.552;2022-08-19T06:02:45;90868.16;;;33.20;38.78
20616;BME280;10467;42.338;23.552;2022-08-19T06:05:10;90880.09;;;33.17;39.14
20616;BME280;10467;42.338;23.552;2022-08-19T06:07:37;90878.81;;;34.60;37.43
20616;BME280;10467;42.338;23.552;2022-08-19T06:10:05;90885.09;;;34.61;37.72
20616;BME280;10467;42.338;23.552;2022-08-19T06:12:32;90882.03;;;35.92;36.73
20616;BME280;10467;42.338;23.552;2022-08-19T06:15:06;90876.50;;;36.49;34.92
20616;BME280;10467;42.338;23.552;2022-08-19T06:17:32;90874.44;;;36.59;35.35
20616;BME280;10467;42.338;23.552;2022-08-19T06:20:00;90881.75;;;38.43;33.19
20616;BME280;10467;42.338;23.552;2022-08-19T06:22:26;90878.06;;;39.85;32.41
20616;BME280;10467;42.338;23.552;2022-08-19T06:24:51;90889.53;;;41.85;30.28
20616;BME280;10467;42.338;23.552;2022-08-19T06:27:19;90889.03;;;41.93;30.06
20616;BME280;10467;42.338;23.552;2022-08-19T06:29:45;90900.75;;;43.44;29.01
20616;BME280;10467;42.338;23.552;2022-08-19T06:32:14;90891.59;;;43.90;27.88
20616;BME280;10467;42.338;23.552;2022-08-19T06:34:40;90897.25;;;45.05;26.34
20616;BME280;10467;42.338;23.552;2022-08-19T06:37:06;90894.88;;;44.60;27.19
20616;BME280;10467;42.338;23.552;2022-08-19T06:39:35;90895.31;;;43.63;28.07
20616;BME280;10467;42.338;23.552;2022-08-19T06:42:02;90893.63;;;43.90;27.25
20616;BME280;10467;42.338;23.552;2022-08-19T06:44:30;90901.66;;;44.40;27.50
20616;BME280;10467;42.338;23.552;2022-08-19T06:47:02;90885.75;;;44.24;27.53
20616;BME280;10467;42.338;23.552;2022-08-19T06:49:27;90894.88;;;44.60;26.40
20616;BME280;10467;42.338;23.552;2022-08-19T06:51:56;90894.69;;;46.07;25.38
20616;BME280;10467;42.338;23.552;2022-08-19T06:54:22;90891.28;;;46.91;24.75
20616;BME280;10467;42.338;23.552;2022-08-19T06:56:48;90896.06;;;47.36;24.03
20616;BME280;10467;42.338;23.552;2022-08-19T06:59:17;90894.06;;;47.84;23.30
20616;BME280;10467;42.338;23.552;2022-08-19T07:01:48;90896.47;;;47.00;22.74
20616;BME280;10467;42.338;23.552;2022-08-19T07:04:17;90895.78;;;45.66;24.64
20616;BME280;10467;42.338;23.552;2022-08-19T07:06:43;90898.06;;;45.67;24.46
20616;BME280;10467;42.338;23.552;2022-08-19T07:09:12;90885.66;;;46.91;23.16
20616;BME280;10467;42.338;23.552;2022-08-19T07:11:38;90894.31;;;47.46;23.24
20616;BME280;10467;42.338;23.552;2022-08-19T07:14:04;90888.56;;;46.40;23.44
20616;BME280;10467;42.338;23.552;2022-08-19T07:16:31;90888.47;;;47.04;23.04
20616;BME280;10467;42.338;23.552;2022-08-19T07:18:57;90892.16;;;47.26;23.48
20616;BME280;10467;42.338;23.552;2022-08-19T07:21:26;90892.09;;;44.85;24.46
20616;BME280;10467;42.338;23.552;2022-08-19T07:23:56;90879.88;;;45.25;24.44
20616;BME280;10467;42.338;23.552;2022-08-19T07:26:26;90891.63;;;47.67;22.72
20616;BME280;10467;42.338;23.552;2022-08-19T07:28:53;90891.28;;;47.57;22.10
20616;BME280;10467;42.338;23.552;2022-08-19T07:31:21;90895.88;;;47.21;21.93
20616;BME280;10467;42.338;23.552;2022-08-19T07:33:49;90892.09;;;44.85;23.03
20616;BME280;10467;42.338;23.552;2022-08-19T07:36:17;90894.06;;;42.95;24.50
20616;BME280;10467;42.338;23.552;2022-08-19T07:38:45;90900.44;;;43.59;24.65
20616;BME280;10467;42.338;23.552;2022-08-19T07:41:15;90889.28;;;45.52;23.17
20616;BME280;10467;42.338;23.552;2022-08-19T07:43:41;90902.44;;;46.01;23.79
20616;BME280;10467;42.338;23.552;2022-08-19T07:46:08;90898.13;;;44.94;23.25
20616;BME280;10467;42.338;23.552;2022-08-19T07:48:34;90898.41;;;45.96;23.26
20616;BME280;10467;42.338;23.552;2022-08-19T07:51:02;90899.66;;;47.97;21.08
20616;BME280;10467;42.338;23.552;2022-08-19T07:53:30;90895.41;;;46.90;21.66
20616;BME280;10467;42.338;23.552;2022-08-19T07:55:56;90896.69;;;46.12;23.50
20616;BME280;10467;42.338;23.552;2022-08-19T07:58:29;90904.47;;;43.63;23.29
20616;BME280;10467;42.338;23.552;2022-08-19T08:00:55;90899.66;;;44.95;23.68
20616;BME280;10467;42.338;23.552;2022-08-19T08:03:21;90900.72;;;44.62;24.42
20616;BME280;10467;42.338;23.552;2022-08-19T08:06:11;90894.97;;;44.19;23.73
20616;BME280;10467;42.338;23.552;2022-08-19T08:08:55;90890.53;;;43.93;23.52
20616;BME280;10467;42.338;23.552;2022-08-19T08:11:55;90900.81;;;43.22;24.49
20616;BME280;10467;42.338;23.552;2022-08-19T08:14:34;90892.38;;;46.43;21.62
20616;BME280;10467;42.338;23.552;2022-08-19T08:17:01;90895.28;;;47.49;21.30
20616;BME280;10467;42.338;23.552;2022-08-19T08:19:28;90881.09;;;47.01;21.34
20616;BME280;10467;42.338;23.552;2022-08-19T08:21:56;90894.47;;;46.05;21.63
20616;BME280;10467;42.338;23.552;2022-08-19T08:24:22;90894.06;;;42.84;24.24
20616;BME280;10467;42.338;23.552;2022-08-19T08:26:47;90885.22;;;42.07;24.13
20616;BME280;10467;42.338;23.552;2022-08-19T08:29:14;90878.88;;;42.62;24.49
20616;BME280;10467;42.338;23.552;2022-08-19T08:31:42;90880.25;;;43.14;23.84
20616;BME280;10467;42.338;23.552;2022-08-19T08:34:09;90883.91;;;42.81;24.87
20616;BME280;10467;42.338;23.552;2022-08-19T08:36:44;90878.72;;;43.07;24.34
20616;BME280;10467;42.338;23.552;2022-08-19T08:39:13;90876.75;;;45.34;23.21
20616;BME280;10467;42.338;23.552;2022-08-19T08:47:03;90872.38;;;44.00;23.75
20616;BME280;10467;42.338;23.552;2022-08-19T08:52:09;90875.53;;;43.91;24.09
20616;BME280;10467;42.338;23.552;2022-08-19T08:54:57;90871.50;;;42.26;25.24
20616;BME280;10467;42.338;23.552;2022-08-19T08:57:38;90867.44;;;42.55;25.23
20616;BME280;10467;42.338;23.552;2022-08-19T09:00:08;90864.75;;;43.01;24.80
20616;BME280;10467;42.338;23.552;2022-08-19T09:02:34;90854.41;;;43.43;24.62
20616;BME280;10467;42.338;23.552;2022-08-19T09:04:59;90860.75;;;44.26;24.79
20616;BME280;10467;42.338;23.552;2022-08-19T09:08:04;90857.41;;;44.58;23.95
20616;BME280;10467;42.338;23.552;2022-08-19T09:10:38;90855.69;;;44.49;25.91
20616;BME280;10467;42.338;23.552;2022-08-19T09:16:02;90852.94;;;44.98;23.41
20616;BME280;10467;42.338;23.552;2022-08-19T09:18:56;90847.59;;;45.75;23.07
20616;BME280;10467;42.338;23.552;2022-08-19T09:21:24;90849.41;;;46.23;22.29
20616;BME280;10467;42.338;23.552;2022-08-19T09:23:51;90857.41;;;45.06;22.14
20616;BME280;10467;42.338;23.552;2022-08-19T09:26:18;90854.94;;;44.73;23.70
20616;BME280;10467;42.338;23.552;2022-08-19T09:28:47;90858.31;;;46.86;22.66
20616;BME280;10467;42.338;23.552;2022-08-19T09:31:22;90848.94;;;45.87;22.85
20616;BME280;10467;42.338;23.552;2022-08-19T09:33:48;90850.09;;;46.30;22.38
20616;BME280;10467;42.338;23.552;2022-08-19T09:36:16;90849.28;;;45.65;21.87
20616;BME280;10467;42.338;23.552;2022-08-19T09:38:44;90847.28;;;44.49;22.76
20616;BME280;10467;42.338;23.552;2022-08-19T09:41:15;90850.13;;;43.78;23.53
20616;BME280;10467;42.338;23.552;2022-08-19T09:43:43;90849.38;;;45.91;21.37
20616;BME280;10467;42.338;23.552;2022-08-19T09:46:09;90835.78;;;44.22;22.34
20616;BME280;10467;42.338;23.552;2022-08-19T09:48:41;90842.75;;;42.42;23.29
20616;BME280;10467;42.338;23.552;2022-08-19T09:51:12;90840.00;;;41.92;23.68
20616;BME280;10467;42.338;23.552;2022-08-19T09:53:41;90831.28;;;42.68;23.57
20616;BME280;10467;42.338;23.552;2022-08-19T09:56:07;90833.25;;;43.89;22.67
20616;BME280;10467;42.338;23.552;2022-08-19T09:58:33;90836.91;;;44.68;21.83
20616;BME280;10467;42.338;23.552;2022-08-19T10:01:00;90836.97;;;45.30;21.02
20616;BME280;10467;42.338;23.552;2022-08-19T10:03:28;90832.31;;;44.65;21.77
20616;BME280;10467;42.338;23.552;2022-08-19T10:05:54;90825.91;;;42.75;22.42
20616;BME280;10467;42.338;23.552;2022-08-19T10:08:38;90829.53;;;44.05;21.49
20616;BME280;10467;42.338;23.552;2022-08-19T10:11:05;90820.63;;;44.37;20.68
20616;BME280;10467;42.338;23.552;2022-08-19T10:13:32;90832.72;;;46.71;19.77
20616;BME280;10467;42.338;23.552;2022-08-19T10:16:08;90816.31;;;43.64;22.20
20616;BME280;10467;42.338;23.552;2022-08-19T10:18:34;90821.38;;;44.37;22.19
20616;BME280;10467;42.338;23.552;2022-08-19T10:21:07;90814.63;;;44.52;22.58
20616;BME280;10467;42.338;23.552;2022-08-19T10:23:33;90822.22;;;42.17;23.88
20616;BME280;10467;42.338;23.552;2022-08-19T10:26:00;90818.56;;;42.67;23.74
20616;BME280;10467;42.338;23.552;2022-08-19T10:28:26;90821.44;;;43.14;23.64
20616;BME280;10467;42.338;23.552;2022-08-19T10:30:51;90810.53;;;43.57;23.32
20616;BME280;10467;42.338;23.552;2022-08-19T10:33:17;90812.22;;;42.61;23.34
20616;BME280;10467;42.338;23.552;2022-08-19T10:35:42;90806.63;;;43.24;23.17
20616;BME280;10467;42.338;23.552;2022-08-19T10:38:09;90809.84;;;43.40;22.52
20616;BME280;10467;42.338;23.552;2022-08-19T10:40:34;90809.81;;;42.87;23.68
20616;BME280;10467;42.338;23.552;2022-08-19T10:43:00;90800.84;;;43.11;23.42
20616;BME280;10467;42.338;23.552;2022-08-19T10:45:25;90807.47;;;41.88;23.69
20616;BME280;10467;42.338;23.552;2022-08-19T10:47:54;90805.94;;;41.76;23.93
20616;BME280;10467;42.338;23.552;2022-08-19T10:50:20;90808.25;;;43.03;23.19
20616;BME280;10467;42.338;23.552;2022-08-19T10:53:06;90813.84;;;41.83;24.14
20616;BME280;10467;42.338;23.552;2022-08-19T10:55:34;90814.09;;;42.19;23.41
20616;BME280;10467;42.338;23.552;2022-08-19T10:58:21;90810.97;;;42.45;24.24
20616;BME280;10467;42.338;23.552;2022-08-19T11:00:56;90805.16;;;39.86;23.97
20616;BME280;10467;42.338;23.552;2022-08-19T11:03:23;90810.22;;;41.44;23.61
20616;BME280;10467;42.338;23.552;2022-08-19T11:06:02;90810.94;;;43.67;23.03
20616;BME280;10467;42.338;23.552;2022-08-19T11:08:28;90809.88;;;44.11;22.01
20616;BME280;10467;42.338;23.552;2022-08-19T11:10:58;90808.22;;;43.14;23.71
20616;BME280;10467;42.338;23.552;2022-08-19T11:13:37;90812.22;;;43.66;22.18
20616;BME280;10467;42.338;23.552;2022-08-19T11:16:09;90804.81;;;44.09;22.18
20616;BME280;10467;42.338;23.552;2022-08-19T11:18:37;90807.63;;;43.74;22.10
20616;BME280;10467;42.338;23.552;2022-08-19T11:21:08;90805.69;;;43.93;22.36
20616;BME280;10467;42.338;23.552;2022-08-19T11:23:34;90802.66;;;43.91;21.62
20616;BME280;10467;42.338;23.552;2022-08-19T11:25:59;90803.13;;;44.25;21.38
20616;BME280;10467;42.338;23.552;2022-08-19T11:28:26;90800.78;;;45.21;21.36
20616;BME280;10467;42.338;23.552;2022-08-19T11:30:52;90790.56;;;43.30;22.28
20616;BME280;10467;42.338;23.552;2022-08-19T11:33:17;90801.91;;;41.66;24.58
20616;BME280;10467;42.338;23.552;2022-08-19T11:35:43;90791.69;;;43.11;23.30
20616;BME280;10467;42.338;23.552;2022-08-19T11:38:08;90790.19;;;42.18;24.18
20616;BME280;10467;42.338;23.552;2022-08-19T11:40:33;90785.34;;;43.04;23.38
20616;BME280;10467;42.338;23.552;2022-08-19T11:42:59;90785.25;;;43.98;22.77
20616;BME280;10467;42.338;23.552;2022-08-19T11:45:26;90782.09;;;44.37;21.95
20616;BME280;10467;42.338;23.552;2022-08-19T11:47:52;90778.13;;;43.97;22.16
20616;BME280;10467;42.338;23.552;2022-08-19T11:50:19;90782.28;;;41.27;23.90
20616;BME280;10467;42.338;23.552;2022-08-19T11:52:45;90784.59;;;42.07;24.31
20616;BME280;10467;42.338;23.552;2022-08-19T11:55:12;90781.72;;;42.63;23.92
20616;BME280;10467;42.338;23.552;2022-08-19T11:57:38;90770.47;;;43.21;22.86
20616;BME280;10467;42.338;23.552;2022-08-19T12:00:04;90771.84;;;43.85;23.12
20616;BME280;10467;42.338;23.552;2022-08-19T12:02:31;90767.31;;;45.04;21.68
20616;BME280;10467;42.338;23.552;2022-08-19T12:04:57;90768.03;;;45.80;21.61
20616;BME280;10467;42.338;23.552;2022-08-19T12:07:22;90770.91;;;45.93;22.37
20616;BME280;10467;42.338;23.552;2022-08-19T12:09:48;90766.16;;;45.70;22.05
20616;BME280;10467;42.338;23.552;2022-08-19T12:12:13;90759.47;;;44.97;20.96
20616;BME280;10467;42.338;23.552;2022-08-19T12:14:39;90750.25;;;44.78;21.21
20616;BME280;10467;42.338;23.552;2022-08-19T12:17:04;90757.97;;;44.96;20.48
20616;BME280;10467;42.338;23.552;2022-08-19T12:19:32;90753.09;;;42.87;22.58
20616;BME280;10467;42.338;23.552;2022-08-19T12:22:00;90756.41;;;41.77;23.76
20616;BME280;10467;42.338;23.552;2022-08-19T12:24:31;90735.59;;;43.22;22.78
20616;BME280;10467;42.338;23.552;2022-08-19T12:26:58;90737.94;;;43.89;21.69
20616;BME280;10467;42.338;23.552;2022-08-19T12:29:24;90735.34;;;45.07;20.25
20616;BME280;10467;42.338;23.552;2022-08-19T12:31:54;90741.47;;;45.44;20.73
20616;BME280;10467;42.338;23.552;2022-08-19T12:34:19;90736.28;;;43.99;21.86
20616;BME280;10467;42.338;23.552;2022-08-19T12:36:45;90731.34;;;42.57;22.13
20616;BME280;10467;42.338;23.552;2022-08-19T12:39:10;90736.31;;;42.12;22.36
20616;BME280;10467;42.338;23.552;2022-08-19T12:41:36;90729.91;;;43.69;22.10
20616;BME280;10467;42.338;23.552;2022-08-19T12:44:03;90735.38;;;44.40;20.84
20616;BME280;10467;42.338;23.552;2022-08-19T12:46:28;90726.34;;;43.38;21.93
20616;BME280;10467;42.338;23.552;2022-08-19T12:48:53;90724.81;;;43.37;21.78
20616;BME280;10467;42.338;23.552;2022-08-19T12:51:19;90717.47;;;42.93;22.03
20616;BME280;10467;42.338;23.552;2022-08-19T12:53:45;90723.78;;;43.76;22.04
20616;BME280;10467;42.338;23.552;2022-08-19T12:56:12;90721.38;;;43.85;22.14
20616;BME280;10467;42.338;23.552;2022-08-19T12:58:40;90722.88;;;42.80;22.87
20616;BME280;10467;42.338;23.552;2022-08-19T13:01:11;90721.72;;;42.47;22.10
20616;BME280;10467;42.338;23.552;2022-08-19T13:03:38;90717.47;;;42.93;23.13